KBYG/BYG METAR and TAF weather

Enter ICAO airport designator
Station Type Date Time Source
KBYG METAR 2019/10/18 10:53 UTC NOAA

KBYG 181053Z AUTO 34019G28KT 10SM BKN011 OVC110 05/02 A2965 RMK AO2 PK WND 35033/1018 SLP004 T00500022


Station Type Date Time Source
KBYG Decoded METAR 2019/10/18 10:53 UTC NOAA

BUFFALO JOHNSON COUNTY AIRPORT , WY, United States (KBYG) 44-23N 106-43W 1497M
Oct 18, 2019 - 06:53 AM EDT / 2019.10.18 1053 UTC
Wind: from the NNW (340 degrees) at 22 MPH (19 KT) gusting to 32 MPH (28 KT):0
Visibility: 10 mile(s):0
Sky conditions: overcast
Temperature: 41.0 F (5.0 C)
Dew Point: 36.0 F (2.2 C)
Relative Humidity: 82%
Pressure (altimeter): 29.65 in. Hg (1004 hPa)
ob: KBYG 181053Z AUTO 34019G28KT 10SM BKN011 OVC110 05/02 A2965 RMK AO2 PK WND 35033/1018 SLP004 T00500022
cycle: 11

Station Type Date Time Source
KBYG TAF UTC NOAA

Error!

Example: see airport list